createdAt,value
2018-06-11T00:01:43.782Z,19.70
2018-06-11T00:04:12.262Z,19.70
2018-06-11T00:06:40.705Z,19.70
2018-06-11T00:09:09.195Z,19.60
2018-06-11T00:11:37.776Z,19.70
2018-06-11T00:14:06.228Z,19.60
2018-06-11T00:16:34.842Z,19.70
2018-06-11T00:19:03.325Z,19.60
2018-06-11T00:21:31.752Z,19.70
2018-06-11T00:24:00.262Z,19.70
2018-06-11T00:26:28.825Z,19.60
2018-06-11T00:28:57.278Z,19.60
2018-06-11T00:31:25.753Z,19.60
2018-06-11T00:33:54.247Z,19.60
2018-06-11T00:36:22.704Z,19.60
2018-06-11T00:38:51.154Z,19.60
2018-06-11T00:41:19.649Z,19.60
2018-06-11T00:43:48.131Z,19.60
2018-06-11T00:46:16.580Z,19.50
2018-06-11T00:48:45.153Z,19.50
2018-06-11T00:51:13.677Z,19.40
2018-06-11T00:53:42.161Z,19.30
2018-06-11T00:56:10.812Z,19.30
2018-06-11T00:58:39.413Z,19.30
2018-06-11T01:01:07.868Z,19.30
2018-06-11T01:03:36.383Z,19.30
2018-06-11T01:06:04.885Z,19.30
2018-06-11T01:08:33.339Z,19.30
2018-06-11T01:11:02.364Z,19.30
2018-06-11T01:13:30.852Z,19.30
2018-06-11T01:15:59.304Z,19.20
2018-06-11T01:18:27.812Z,19.20
2018-06-11T01:20:56.291Z,19.20
2018-06-11T01:23:24.780Z,19.20
2018-06-11T01:25:53.214Z,19.20
2018-06-11T01:28:21.668Z,19.20
2018-06-11T01:30:50.225Z,19.20
2018-06-11T01:33:18.735Z,19.20
2018-06-11T01:35:47.179Z,19.20
2018-06-11T01:38:15.616Z,19.20
2018-06-11T01:40:44.143Z,19.20
2018-06-11T01:43:12.716Z,19.20
2018-06-11T01:45:41.253Z,19.20
2018-06-11T01:48:09.704Z,19.20
2018-06-11T01:50:38.154Z,19.20
2018-06-11T01:53:06.666Z,19.10
2018-06-11T01:55:35.164Z,19.20
2018-06-11T01:58:03.655Z,19.10
2018-06-11T02:00:32.150Z,19.20
2018-06-11T02:03:00.640Z,19.20
2018-06-11T02:05:29.195Z,19.20
2018-06-11T02:07:57.635Z,19.20
2018-06-11T02:10:26.120Z,19.20
2018-06-11T02:12:54.600Z,19.20
2018-06-11T02:15:23.110Z,19.10
2018-06-11T02:17:51.799Z,19.10
2018-06-11T02:20:20.292Z,19.20
2018-06-11T02:22:48.752Z,19.10
2018-06-11T02:27:45.386Z,19.10
2018-06-11T02:30:13.889Z,19.10
2018-06-11T02:32:42.363Z,19.10
2018-06-11T02:35:10.850Z,19.10
2018-06-11T02:37:39.316Z,19.10
2018-06-11T02:40:07.786Z,19.10
2018-06-11T02:42:36.232Z,19.20
2018-06-11T02:45:04.844Z,19.20
2018-06-11T02:47:33.313Z,19.20
2018-06-11T02:50:01.818Z,19.20
2018-06-11T02:52:30.322Z,19.20
2018-06-11T02:54:58.781Z,19.10
2018-06-11T02:57:27.274Z,19.10
2018-06-11T02:59:55.772Z,19.10
2018-06-11T03:02:24.255Z,19.10
2018-06-11T03:04:52.693Z,19.00
2018-06-11T03:07:21.121Z,19.00
2018-06-11T03:12:17.697Z,19.00
2018-06-11T03:14:46.201Z,19.00
2018-06-11T03:17:15.215Z,19.00
2018-06-11T03:19:43.701Z,18.90
2018-06-11T03:22:12.227Z,18.90
2018-06-11T03:24:40.705Z,18.90
2018-06-11T03:27:09.190Z,18.80
2018-06-11T03:29:37.717Z,18.80
2018-06-11T03:32:06.454Z,18.80
2018-06-11T03:34:34.893Z,18.70
2018-06-11T03:37:03.398Z,18.80
2018-06-11T03:39:31.904Z,18.80
2018-06-11T03:42:00.378Z,18.70
2018-06-11T03:44:28.934Z,18.70
2018-06-11T03:46:57.393Z,18.70
2018-06-11T03:49:25.915Z,18.70
2018-06-11T03:51:54.393Z,18.70
2018-06-11T03:54:22.837Z,18.70
2018-06-11T03:56:51.340Z,18.70
2018-06-11T03:59:19.824Z,18.70
2018-06-11T04:01:48.329Z,18.70
2018-06-11T04:04:16.816Z,18.80
2018-06-11T04:06:45.379Z,18.80
2018-06-11T04:09:13.848Z,18.80
2018-06-11T04:11:42.300Z,18.80
2018-06-11T04:14:10.796Z,18.90
2018-06-11T04:16:39.267Z,19.10
2018-06-11T04:19:07.722Z,19.20
2018-06-11T04:21:36.566Z,19.30
2018-06-11T04:24:05.103Z,19.30
2018-06-11T04:26:33.661Z,19.50
2018-06-11T04:29:02.137Z,19.50
2018-06-11T04:31:30.641Z,19.50
2018-06-11T04:33:59.136Z,19.60
2018-06-11T04:36:27.638Z,19.60
2018-06-11T04:38:56.116Z,19.70
2018-06-11T04:41:25.096Z,19.70
2018-06-11T04:43:53.565Z,19.70
2018-06-11T04:46:22.110Z,19.80
2018-06-11T04:48:50.588Z,19.70
2018-06-11T04:51:19.044Z,19.70
2018-06-11T04:53:47.528Z,19.70
2018-06-11T04:56:15.986Z,19.70
2018-06-11T04:58:44.568Z,19.80
2018-06-11T05:01:13.009Z,19.90
2018-06-11T05:03:41.465Z,20.00
2018-06-11T05:06:09.997Z,20.10
2018-06-11T05:08:38.749Z,20.10
2018-06-11T05:11:07.252Z,20.20
2018-06-11T05:13:36.144Z,20.40
2018-06-11T05:16:04.648Z,20.50
2018-06-11T05:18:33.359Z,20.70
2018-06-11T05:21:01.881Z,20.80
2018-06-11T05:23:30.454Z,20.90
2018-06-11T05:25:58.978Z,21.10
2018-06-11T05:28:27.558Z,21.30
2018-06-11T05:30:56.590Z,21.60
2018-06-11T05:33:25.322Z,21.80
2018-06-11T05:35:53.938Z,22.20
2018-06-11T05:38:22.546Z,22.40
2018-06-11T05:40:51.198Z,22.60
2018-06-11T05:43:19.786Z,23.00
2018-06-11T05:45:49.267Z,23.10
2018-06-11T05:48:17.808Z,23.30
2018-06-11T05:50:46.319Z,23.60
2018-06-11T05:53:14.794Z,23.80
2018-06-11T05:55:43.362Z,23.80
2018-06-11T05:58:11.899Z,23.90
2018-06-11T06:00:40.434Z,24.10
2018-06-11T06:03:09.041Z,24.40
2018-06-11T06:05:37.579Z,24.60
2018-06-11T06:08:06.183Z,24.80
2018-06-11T06:10:34.857Z,25.10
2018-06-11T06:13:03.520Z,25.10
2018-06-11T06:15:32.093Z,25.30
2018-06-11T06:18:00.843Z,25.50
2018-06-11T06:20:30.892Z,25.40
2018-06-11T06:22:59.481Z,25.60
2018-06-11T06:25:28.114Z,25.70
2018-06-11T06:27:56.639Z,25.80
2018-06-11T06:30:25.533Z,25.80
2018-06-11T06:33:00.520Z,25.70
2018-06-11T06:35:30.045Z,26.00
2018-06-11T06:37:58.694Z,26.10
2018-06-11T06:40:28.817Z,26.30
2018-06-11T06:42:58.637Z,26.40
2018-06-11T06:45:28.103Z,26.60
2018-06-11T06:47:56.722Z,26.80
2018-06-11T06:50:25.860Z,26.90
2018-06-11T06:52:54.582Z,26.80
2018-06-11T06:55:23.498Z,27.00
2018-06-11T06:57:52.084Z,26.90
2018-06-11T07:00:20.802Z,27.10
2018-06-11T07:02:50.194Z,27.00
2018-06-11T07:05:18.670Z,27.00
2018-06-11T07:07:47.132Z,27.00
2018-06-11T07:10:15.773Z,26.90
2018-06-11T07:12:44.238Z,27.00
2018-06-11T07:15:12.717Z,26.90
2018-06-11T07:17:41.780Z,26.90
2018-06-11T07:20:10.232Z,27.00
2018-06-11T07:22:38.726Z,27.20
2018-06-11T07:25:07.246Z,27.30
2018-06-11T07:27:35.652Z,27.50
2018-06-11T07:30:04.139Z,27.60
2018-06-11T07:32:32.672Z,27.30
2018-06-11T07:35:01.165Z,27.40
2018-06-11T07:37:29.603Z,27.10
2018-06-11T07:42:26.230Z,27.50
2018-06-11T07:44:54.739Z,27.80
2018-06-11T07:47:23.202Z,28.10
2018-06-11T07:49:51.709Z,28.40
2018-06-11T07:52:20.192Z,28.20
2018-06-11T07:54:48.644Z,28.20
2018-06-11T07:57:17.209Z,28.00
2018-06-11T07:59:45.633Z,27.80
2018-06-11T08:02:14.093Z,27.90
2018-06-11T08:04:42.580Z,28.10
2018-06-11T08:07:11.074Z,28.30
2018-06-11T08:09:39.595Z,28.40
2018-06-11T08:12:08.130Z,28.40
2018-06-11T08:14:36.557Z,28.60
2018-06-11T08:17:05.059Z,28.50
2018-06-11T08:19:34.185Z,28.50
2018-06-11T08:22:02.686Z,28.50
2018-06-11T08:24:31.144Z,28.30
2018-06-11T08:26:59.603Z,28.50
2018-06-11T08:29:28.036Z,28.30
2018-06-11T08:31:56.529Z,28.10
2018-06-11T08:34:25.018Z,28.00
2018-06-11T08:36:53.538Z,28.30
2018-06-11T08:39:22.054Z,28.50
2018-06-11T08:41:50.562Z,28.50
2018-06-11T08:44:19.129Z,28.50
2018-06-11T08:46:47.594Z,28.50
2018-06-11T08:49:16.054Z,28.70
2018-06-11T08:51:44.572Z,28.80
2018-06-11T08:54:13.070Z,29.00
2018-06-11T08:56:41.590Z,29.30
2018-06-11T08:59:10.322Z,29.10
2018-06-11T09:01:38.850Z,29.00
2018-06-11T09:04:07.300Z,29.10
2018-06-11T09:06:35.753Z,29.20
2018-06-11T09:09:06.540Z,29.50
2018-06-11T09:11:34.998Z,29.20
2018-06-11T09:14:04.047Z,29.30
2018-06-11T09:16:32.493Z,29.40
2018-06-11T09:19:00.942Z,29.40
2018-06-11T09:21:29.450Z,29.50
2018-06-11T09:23:57.916Z,29.40
2018-06-11T09:26:26.461Z,29.50
2018-06-11T09:28:54.930Z,29.30
2018-06-11T09:31:23.392Z,29.40
2018-06-11T09:33:51.904Z,29.60
2018-06-11T09:36:20.377Z,29.80
2018-06-11T09:38:48.847Z,29.80
2018-06-11T09:41:17.358Z,29.80
2018-06-11T09:43:45.961Z,30.10
2018-06-11T09:46:14.372Z,30.60
2018-06-11T09:48:42.836Z,30.90
2018-06-11T09:51:11.297Z,30.90
2018-06-11T09:53:39.795Z,30.60
2018-06-11T09:56:08.302Z,30.50
2018-06-11T09:58:36.997Z,30.70
2018-06-11T10:01:05.444Z,31.00
2018-06-11T10:03:33.937Z,31.00
2018-06-11T10:08:30.605Z,30.70
2018-06-11T10:10:59.102Z,30.80
2018-06-11T10:13:27.554Z,31.00
2018-06-11T10:15:56.033Z,31.30
2018-06-11T10:18:24.530Z,31.50
2018-06-11T10:20:52.999Z,31.40
2018-06-11T10:23:21.478Z,31.70
2018-06-11T10:25:49.983Z,31.90
2018-06-11T10:28:18.476Z,31.70
2018-06-11T10:30:46.977Z,31.30
2018-06-11T10:33:16.417Z,31.00
2018-06-11T10:35:45.072Z,31.10
2018-06-11T10:38:13.569Z,31.30
2018-06-11T10:40:42.021Z,31.10
2018-06-11T10:43:10.612Z,31.10
2018-06-11T10:45:39.134Z,31.50
2018-06-11T10:48:07.626Z,31.20
2018-06-11T10:50:36.033Z,31.40
2018-06-11T10:53:04.506Z,31.50
2018-06-11T10:55:33.045Z,31.20
2018-06-11T10:58:01.605Z,30.90
2018-06-11T11:00:30.095Z,30.70
2018-06-11T11:02:58.552Z,31.00
2018-06-11T11:05:27.047Z,31.00
2018-06-11T11:07:55.976Z,31.10
2018-06-11T11:10:25.536Z,31.10
2018-06-11T11:12:54.023Z,31.40
2018-06-11T11:15:22.585Z,31.40
2018-06-11T11:17:51.100Z,31.10
2018-06-11T11:20:19.621Z,31.00
2018-06-11T11:22:48.198Z,30.90
2018-06-11T11:25:16.720Z,30.90
2018-06-11T11:27:45.338Z,31.10
2018-06-11T11:30:13.877Z,31.00
2018-06-11T11:32:42.392Z,31.00
2018-06-11T11:35:10.921Z,30.90
2018-06-11T11:37:39.472Z,30.80
2018-06-11T11:40:08.010Z,30.90
2018-06-11T11:42:36.538Z,31.20
2018-06-11T11:45:05.073Z,31.20
2018-06-11T11:47:33.690Z,31.10
2018-06-11T11:50:02.192Z,31.10
2018-06-11T11:52:30.755Z,31.40
2018-06-11T11:54:59.336Z,31.30
2018-06-11T11:57:27.911Z,31.60
2018-06-11T11:59:56.693Z,31.50
2018-06-11T12:02:25.246Z,31.60
2018-06-11T12:04:53.803Z,31.60
2018-06-11T12:07:22.428Z,31.30
2018-06-11T12:12:19.218Z,31.40
2018-06-11T12:14:47.860Z,31.20
2018-06-11T12:17:16.503Z,31.20
2018-06-11T12:19:45.131Z,31.40
2018-06-11T12:22:13.726Z,31.60
2018-06-11T12:24:42.334Z,31.60
2018-06-11T12:27:11.862Z,31.50
2018-06-11T12:29:40.522Z,31.30
2018-06-11T12:32:09.130Z,31.30
2018-06-11T12:34:37.739Z,31.40
2018-06-11T12:37:06.363Z,31.30
2018-06-11T12:39:34.934Z,31.60
2018-06-11T12:42:03.572Z,31.80
2018-06-11T12:44:32.172Z,31.80
2018-06-11T12:47:01.523Z,31.90
2018-06-11T12:49:30.126Z,31.80
2018-06-11T12:51:58.751Z,31.70
2018-06-11T12:54:27.415Z,31.70
2018-06-11T12:56:56.115Z,31.60
2018-06-11T13:12:27.885Z,31.60
2018-06-11T13:23:48.768Z,31.60
2018-06-11T13:37:57.745Z,31.00
2018-06-11T13:54:56.074Z,30.90
2018-06-11T13:57:46.009Z,30.70
2018-06-11T14:00:31.625Z,30.70
2018-06-11T14:06:13.298Z,30.50
2018-06-11T14:37:27.326Z,30.30
2018-06-11T15:19:34.410Z,29.50
2018-06-11T15:22:03.526Z,29.70
2018-06-11T15:24:32.781Z,29.60
2018-06-11T15:27:01.435Z,29.70
2018-06-11T15:29:31.720Z,29.70
2018-06-11T15:32:00.139Z,29.70
2018-06-11T15:34:28.662Z,29.90
2018-06-11T15:36:57.638Z,30.00
2018-06-11T15:39:26.235Z,29.80
2018-06-11T15:41:55.073Z,29.80
2018-06-11T15:44:23.719Z,29.90
2018-06-11T15:46:52.346Z,29.90
2018-06-11T15:49:20.994Z,29.80
2018-06-11T15:51:49.571Z,29.80
2018-06-11T15:54:18.220Z,29.80
2018-06-11T15:56:46.971Z,29.60
2018-06-11T15:59:15.603Z,29.70
2018-06-11T16:01:44.292Z,29.40
2018-06-11T16:04:12.933Z,29.30
2018-06-11T16:06:41.557Z,29.40
2018-06-11T16:09:10.179Z,29.50
2018-06-11T16:11:38.828Z,29.50
2018-06-11T16:14:07.457Z,29.50
2018-06-11T16:16:36.042Z,29.60
2018-06-11T16:19:05.090Z,29.40
2018-06-11T16:21:34.493Z,29.30
2018-06-11T16:24:03.029Z,29.10
2018-06-11T16:26:31.565Z,29.10
2018-06-11T16:29:00.061Z,29.10
2018-06-11T16:31:28.568Z,29.20
2018-06-11T16:33:57.148Z,29.30
2018-06-11T16:36:25.748Z,29.30
2018-06-11T16:38:54.381Z,29.30
2018-06-11T16:41:23.036Z,29.20
2018-06-11T16:43:51.517Z,29.10
2018-06-11T16:46:19.981Z,29.10
2018-06-11T16:48:48.482Z,29.10
2018-06-11T16:53:45.123Z,28.90
2018-06-11T16:56:13.582Z,28.90
2018-06-11T16:58:42.097Z,28.90
2018-06-11T17:01:10.581Z,28.90
2018-06-11T17:03:39.014Z,28.90
2018-06-11T17:06:07.493Z,28.90
2018-06-11T17:08:35.973Z,28.80
2018-06-11T17:11:04.458Z,28.70
2018-06-11T17:16:01.154Z,28.40
2018-06-11T17:18:29.634Z,28.30
2018-06-11T17:20:58.427Z,28.00
2018-06-11T17:23:26.939Z,27.90
2018-06-11T17:25:55.469Z,27.90
2018-06-11T17:28:24.073Z,27.70
2018-06-11T17:30:52.658Z,27.60
2018-06-11T17:33:21.265Z,27.50
2018-06-11T17:35:49.747Z,27.40
2018-06-11T17:38:18.351Z,27.20
2018-06-11T17:40:47.005Z,27.10
2018-06-11T17:43:15.619Z,27.10
2018-06-11T17:45:44.405Z,27.00
2018-06-11T17:48:13.090Z,27.00
2018-06-11T17:50:42.685Z,27.00
2018-06-11T17:53:11.390Z,26.90
2018-06-11T17:55:40.078Z,26.80
2018-06-11T17:58:08.711Z,26.80
2018-06-11T18:00:37.410Z,26.70
2018-06-11T18:03:06.362Z,26.60
2018-06-11T18:05:35.154Z,26.50
2018-06-11T18:08:03.797Z,26.50
2018-06-11T18:10:32.448Z,26.40
2018-06-11T18:13:01.133Z,26.50
2018-06-11T18:15:29.757Z,26.40
2018-06-11T18:17:58.385Z,26.40
2018-06-11T18:20:27.033Z,26.30
2018-06-11T18:22:55.743Z,26.30
2018-06-11T18:25:24.324Z,26.30
2018-06-11T18:27:53.162Z,26.20
2018-06-11T18:30:21.850Z,26.20
2018-06-11T18:32:50.471Z,26.10
2018-06-11T18:35:19.219Z,26.00
2018-06-11T18:37:47.849Z,26.00
2018-06-11T18:40:16.721Z,25.90
2018-06-11T18:42:46.328Z,25.80
2018-06-11T18:45:14.930Z,25.80
2018-06-11T18:47:43.583Z,25.70
2018-06-11T18:50:12.574Z,25.60
2018-06-11T18:52:41.303Z,25.60
2018-06-11T18:55:10.054Z,25.50
2018-06-11T18:57:38.764Z,25.40
2018-06-11T19:00:07.633Z,25.30
2018-06-11T19:02:36.272Z,25.30
2018-06-11T19:05:05.045Z,25.20
2018-06-11T19:07:33.879Z,25.10
2018-06-11T19:10:03.100Z,25.10
2018-06-11T19:12:32.156Z,25.00
2018-06-11T19:15:00.883Z,25.00
2018-06-11T19:17:29.569Z,24.80
2018-06-11T19:19:58.631Z,24.80
2018-06-11T19:22:27.283Z,24.70
2018-06-11T19:24:56.277Z,24.60
2018-06-11T19:27:25.329Z,24.50
2018-06-11T19:29:54.064Z,24.50
2018-06-11T19:32:22.691Z,24.50
2018-06-11T19:34:51.230Z,24.50
2018-06-11T19:37:21.126Z,24.50
2018-06-11T19:39:50.541Z,24.50
2018-06-11T19:42:19.249Z,24.50
2018-06-11T19:44:48.077Z,24.50
2018-06-11T19:47:17.320Z,24.40
2018-06-11T19:49:46.237Z,24.40
2018-06-11T19:52:15.115Z,24.40
2018-06-11T19:54:43.785Z,24.30
2018-06-11T19:57:12.416Z,24.20
2018-06-11T19:59:41.083Z,24.20
2018-06-11T20:02:09.979Z,24.20
2018-06-11T20:04:38.603Z,24.20
2018-06-11T20:07:07.337Z,24.10
2018-06-11T20:09:36.019Z,24.10
2018-06-11T20:12:05.706Z,24.00
2018-06-11T20:14:34.314Z,24.00
2018-06-11T20:17:02.999Z,24.00
2018-06-11T20:19:32.686Z,23.90
2018-06-11T20:22:01.664Z,23.90
2018-06-11T20:24:31.050Z,23.80
2018-06-11T20:26:59.653Z,23.80
2018-06-11T20:29:28.281Z,23.80
2018-06-11T20:31:59.282Z,23.90
2018-06-11T20:34:30.097Z,23.80
2018-06-11T20:36:58.830Z,23.80
2018-06-11T20:39:27.441Z,23.80
2018-06-11T20:41:57.089Z,23.70
2018-06-11T20:44:25.822Z,23.60
2018-06-11T20:46:54.495Z,23.50
2018-06-11T20:49:23.593Z,23.40
2018-06-11T20:51:53.755Z,23.50
2018-06-11T20:54:22.927Z,23.30
2018-06-11T20:56:51.508Z,23.30
2018-06-11T20:59:20.109Z,23.30
2018-06-11T21:01:48.769Z,23.20
2018-06-11T21:04:17.438Z,23.10
2018-06-11T21:06:47.106Z,23.20
2018-06-11T21:09:15.733Z,23.10
2018-06-11T21:11:45.465Z,23.10
2018-06-11T21:14:14.604Z,23.00
2018-06-11T21:16:43.653Z,23.00
2018-06-11T21:19:12.584Z,23.00
2018-06-11T21:21:41.303Z,22.90
2018-06-11T21:24:11.238Z,22.90
2018-06-11T21:26:40.038Z,22.80
2018-06-11T21:29:09.590Z,22.80
2018-06-11T21:31:38.546Z,22.80
2018-06-11T21:34:07.411Z,22.70
2018-06-11T21:36:37.374Z,22.60
2018-06-11T21:39:08.782Z,22.60
2018-06-11T21:41:37.568Z,22.60
2018-06-11T21:44:06.400Z,22.50
2018-06-11T21:46:36.788Z,22.50
2018-06-11T21:49:05.555Z,22.50
2018-06-11T21:51:34.161Z,22.40
2018-06-11T21:54:03.819Z,22.20
2018-06-11T21:56:32.481Z,22.00
2018-06-11T21:59:01.096Z,21.90
2018-06-11T22:01:30.050Z,21.90
2018-06-11T22:03:58.950Z,21.90
2018-06-11T22:06:27.641Z,21.90
2018-06-11T22:08:56.275Z,21.80
2018-06-11T22:11:25.420Z,21.80
2018-06-11T22:13:54.012Z,21.80
2018-06-11T22:16:25.424Z,21.80
2018-06-11T22:18:55.847Z,21.70
2018-06-11T22:21:25.637Z,21.70
2018-06-11T22:23:58.292Z,21.70
2018-06-11T22:26:27.719Z,21.60
2018-06-11T22:28:56.304Z,21.60
2018-06-11T22:31:25.732Z,21.50
2018-06-11T22:33:54.265Z,21.60
2018-06-11T22:36:22.825Z,21.60
2018-06-11T22:38:53.111Z,21.60
2018-06-11T22:41:23.919Z,21.50
2018-06-11T22:43:53.484Z,21.50
2018-06-11T22:46:22.335Z,21.50
2018-06-11T22:48:51.104Z,21.50
2018-06-11T22:51:19.970Z,21.50
2018-06-11T22:53:48.435Z,21.40
2018-06-11T22:56:17.895Z,21.40
2018-06-11T22:58:46.450Z,21.50
2018-06-11T23:01:15.522Z,21.50
2018-06-11T23:03:44.114Z,21.50
2018-06-11T23:06:13.734Z,21.50
2018-06-11T23:08:42.681Z,21.40
2018-06-11T23:13:40.199Z,21.40
2018-06-11T23:16:09.763Z,21.40
2018-06-11T23:18:38.452Z,21.40
2018-06-11T23:21:07.134Z,21.40
2018-06-11T23:23:35.639Z,21.30
2018-06-11T23:26:05.867Z,21.30
2018-06-11T23:28:34.442Z,21.20
2018-06-11T23:31:04.724Z,21.20
2018-06-11T23:33:34.906Z,21.20
2018-06-11T23:36:03.387Z,21.20
2018-06-11T23:38:32.441Z,21.20
2018-06-11T23:41:01.379Z,21.20
2018-06-11T23:43:30.723Z,21.20
2018-06-11T23:45:59.531Z,21.20
2018-06-11T23:48:28.905Z,21.10
2018-06-11T23:50:58.197Z,21.10
2018-06-11T23:53:27.066Z,21.10
2018-06-11T23:55:55.558Z,21.00
2018-06-11T23:58:24.260Z,21.10
